Time;durP1;ratioP1;P1;durP2;ratioP2;P2;SDS_P1;SDS_P2;PMS_P1;PMS_P2;Temp;Humidity;BMP_temperature;BMP_pressure;BME280_temperature;BME280_humidity;BME280_pressure;Samples;Min_cycle;Max_cycle;Signal;HPM_P1;HPM_P2
2022/11/04 00:01:21;;;;;;;1.38;0.20;;;20.40;83.80;;;;;;6273928;22;45285;-71
2022/11/04 00:03:49;;;;;;;0.22;0.22;;;20.40;83.80;;;;;;6274225;22;45271;-70
2022/11/04 00:06:16;;;;;;;0.35;0.28;;;20.30;83.60;;;;;;6273073;22;45426;-71
2022/11/04 00:08:43;;;;;;;0.35;0.35;;;20.30;83.70;;;;;;6273408;22;46797;-72
2022/11/04 00:13:55;;;;;;;0.30;0.25;;;20.30;83.80;;;;;;6274322;22;45302;-71
2022/11/04 00:19:07;;;;;;;0.40;0.40;;;20.30;83.60;;;;;;6274912;22;45156;-70
2022/11/04 00:29:57;;;;;;;0.60;0.30;;;20.40;83.80;;;;;;6274727;22;45270;-71
2022/11/04 00:35:10;;;;;;;0.57;0.30;;;20.40;83.70;;;;;;6274497;22;45366;-71
2022/11/04 00:37:37;;;;;;;1.10;0.52;;;20.40;83.60;;;;;;6275017;22;45257;-70
2022/11/04 00:40:06;;;;;;;0.30;0.30;;;20.40;83.50;;;;;;6274579;22;46562;-72
2022/11/04 00:42:33;;;;;;;0.28;0.20;;;20.40;83.50;;;;;;6274262;22;45349;-71
2022/11/04 00:44:59;;;;;;;0.63;0.40;;;20.40;83.60;;;;;;6274546;22;45374;-71
2022/11/04 00:47:27;;;;;;;0.30;0.30;;;20.40;83.70;;;;;;6274241;22;45667;-70
2022/11/04 00:49:54;;;;;;;0.20;0.20;;;20.40;83.70;;;;;;6275103;22;46583;-71
2022/11/04 00:52:22;;;;;;;0.50;0.20;;;20.40;83.60;;;;;;6274449;22;45967;-71
2022/11/04 00:54:49;;;;;;;1.23;0.30;;;20.40;83.60;;;;;;6274561;22;45380;-71
2022/11/04 00:57:16;;;;;;;0.40;0.40;;;20.40;83.60;;;;;;6275697;22;45518;-71
2022/11/04 00:59:44;;;;;;;0.63;0.28;;;20.40;83.60;;;;;;6274442;22;48388;-71
2022/11/04 01:02:12;;;;;;;0.20;0.20;;;20.40;83.60;;;;;;6274995;22;45291;-71
2022/11/04 01:04:39;;;;;;;0.75;0.38;;;20.40;83.60;;;;;;6273717;22;45461;-71
2022/11/04 01:07:06;;;;;;;0.30;0.30;;;20.40;83.70;;;;;;6275153;22;45436;-71
2022/11/04 01:09:34;;;;;;;0.52;0.30;;;20.40;83.80;;;;;;6274356;22;46426;-71
2022/11/04 01:12:01;;;;;;;0.45;0.30;;;20.40;83.60;;;;;;6274973;22;45134;-71
2022/11/04 01:14:28;;;;;;;0.10;0.10;;;20.40;83.70;;;;;;6274753;22;45294;-71
2022/11/04 01:16:55;;;;;;;2.17;0.45;;;20.40;83.60;;;;;;6274180;22;45488;-71
2022/11/04 01:19:22;;;;;;;0.30;0.30;;;20.40;83.50;;;;;;6274517;22;47409;-71
2022/11/04 01:21:51;;;;;;;0.20;0.20;;;20.40;83.60;;;;;;6274386;22;45295;-71
2022/11/04 01:24:18;;;;;;;0.63;0.30;;;20.40;83.60;;;;;;6274716;22;45558;-71
2022/11/04 01:26:46;;;;;;;0.20;0.20;;;20.40;83.60;;;;;;6274606;22;45401;-71
2022/11/04 01:29:13;;;;;;;0.10;0.10;;;20.40;83.50;;;;;;6274648;22;48030;-72
2022/11/04 01:31:40;;;;;;;0.25;0.20;;;20.40;83.60;;;;;;6273906;22;45291;-71
2022/11/04 01:34:07;;;;;;;0.35;0.30;;;20.40;83.60;;;;;;6273950;22;45219;-72
2022/11/04 01:36:34;;;;;;;0.63;0.30;;;20.40;83.50;;;;;;6275374;22;45294;-71
2022/11/04 01:39:00;;;;;;;0.17;0.17;;;20.40;83.50;;;;;;6274111;22;47730;-71
2022/11/04 01:41:29;;;;;;;0.20;0.20;;;20.40;83.70;;;;;;6275508;22;45501;-71
2022/11/04 01:43:59;;;;;;;1.17;0.38;;;20.40;83.60;;;;;;6273511;22;45395;-70
2022/11/04 01:46:31;;;;;;;0.10;0.10;;;20.40;83.60;;;;;;6274605;22;45509;-71
2022/11/04 01:49:03;;;;;;;0.20;0.20;;;20.40;83.60;;;;;;6274699;22;46229;-72
2022/11/04 01:51:33;;;;;;;0.38;0.20;;;20.40;83.60;;;;;;6274683;22;46005;-71
2022/11/04 01:54:02;;;;;;;0.85;0.30;;;20.40;83.60;;;;;;6274944;22;45284;-71
2022/11/04 01:56:29;;;;;;;1.00;0.47;;;20.40;83.50;;;;;;6274170;22;45136;-71
2022/11/04 01:59:03;;;;;;;0.50;0.25;;;20.40;83.50;;;;;;6274340;22;48039;-71
2022/11/04 02:01:30;;;;;;;0.52;0.40;;;20.40;83.60;;;;;;6273495;22;45388;-71
2022/11/04 02:04:24;;;;;;;0.28;0.20;;;20.40;83.60;;;;;;6274250;22;45380;-71
2022/11/04 02:06:48;;;;;;;0.20;0.10;;;20.40;83.60;;;;;;6274717;22;45455;-71
2022/11/04 02:09:18;;;;;;;0.82;0.20;;;20.40;83.50;;;;;;6273838;22;47459;-71
2022/11/04 02:14:31;;;;;;;0.63;0.40;;;20.40;83.40;;;;;;6273620;22;45330;-71
2022/11/04 02:17:05;;;;;;;0.68;0.30;;;20.40;83.40;;;;;;6274990;22;45500;-70
2022/11/04 02:20:03;;;;;;;0.93;0.20;;;20.40;83.30;;;;;;6273587;22;47037;-70
2022/11/04 02:22:52;;;;;;;0.40;0.30;;;20.40;83.10;;;;;;6266253;22;45229;-71
2022/11/04 02:25:33;;;;;;;0.10;0.10;;;20.40;83.20;;;;;;6274054;22;45274;-71
2022/11/04 02:28:33;;;;;;;0.20;0.20;;;20.40;83.20;;;;;;6274915;22;45319;-71
2022/11/04 02:31:08;;;;;;;0.30;0.28;;;20.40;83.30;;;;;;6273991;22;46608;-71
2022/11/04 02:33:41;;;;;;;0.13;0.13;;;20.40;83.40;;;;;;6273136;22;45255;-71
2022/11/04 02:36:17;;;;;;;0.20;0.10;;;20.40;83.20;;;;;;6274052;22;45264;-71
2022/11/04 02:38:52;;;;;;;1.13;0.25;;;20.40;83.30;;;;;;6274426;22;45362;-70
2022/11/04 02:41:30;;;;;;;0.20;0.20;;;20.40;83.40;;;;;;6274095;22;45331;-71
2022/11/04 02:44:04;;;;;;;0.30;0.30;;;20.40;83.30;;;;;;6274105;22;45255;-71
2022/11/04 02:46:36;;;;;;;0.55;0.30;;;20.40;83.20;;;;;;6274486;22;45297;-71
2022/11/04 02:49:10;;;;;;;0.70;0.20;;;20.40;84.20;;;;;;6274265;22;45418;-71
2022/11/04 02:51:41;;;;;;;0.45;0.30;;;20.40;83.30;;;;;;6274457;22;45338;-71
2022/11/04 02:54:11;;;;;;;0.35;0.20;;;20.40;83.30;;;;;;6274430;22;46239;-72
2022/11/04 02:56:44;;;;;;;0.25;0.25;;;20.40;83.30;;;;;;6273352;22;45249;-71
2022/11/04 02:59:15;;;;;;;1.13;0.57;;;20.40;83.30;;;;;;6273554;22;45220;-70
2022/11/04 03:01:47;;;;;;;0.30;0.30;;;20.40;83.20;;;;;;6272246;22;45479;-71
2022/11/04 03:04:18;;;;;;;0.20;0.20;;;20.40;83.10;;;;;;6273746;22;45252;-71
2022/11/04 03:06:49;;;;;;;1.42;0.38;;;20.40;83.10;;;;;;6273016;22;45400;-72
2022/11/04 03:09:18;;;;;;;0.88;0.30;;;20.40;83.00;;;;;;6274785;22;45243;-70
2022/11/04 03:11:49;;;;;;;0.60;0.20;;;20.40;83.00;;;;;;6274587;22;45184;-71
2022/11/04 03:14:20;;;;;;;0.30;0.20;;;20.40;83.00;;;;;;6273943;22;45369;-71
2022/11/04 03:16:51;;;;;;;0.82;0.20;;;20.40;82.90;;;;;;6274833;22;45185;-71
2022/11/04 03:19:26;;;;;;;0.65;0.30;;;20.40;82.90;;;;;;6274145;22;45459;-71
2022/11/04 03:22:01;;;;;;;0.20;0.17;;;20.40;82.90;;;;;;6274355;22;47088;-71
2022/11/04 03:24:30;;;;;;;0.10;0.10;;;20.40;82.80;;;;;;6272809;22;46078;-71
2022/11/04 03:27:00;;;;;;;0.45;0.25;;;20.40;82.80;;;;;;6274080;22;45347;-71
2022/11/04 03:29:31;;;;;;;1.85;0.30;;;20.40;82.80;;;;;;6273992;22;45296;-71
2022/11/04 03:32:07;;;;;;;0.28;0.20;;;20.40;82.80;;;;;;6272122;22;47070;-71
2022/11/04 03:34:35;;;;;;;0.25;0.20;;;20.40;82.70;;;;;;6272126;22;45350;-71
2022/11/04 03:37:02;;;;;;;0.45;0.35;;;20.40;82.80;;;;;;6272286;22;45341;-71
2022/11/04 03:39:29;;;;;;;0.30;0.30;;;20.40;82.80;;;;;;6274163;22;45272;-71
2022/11/04 03:41:58;;;;;;;0.43;0.20;;;20.40;82.90;;;;;;6273426;22;45312;-71
2022/11/04 03:44:25;;;;;;;0.60;0.20;;;20.40;82.70;;;;;;6273405;22;45272;-71
2022/11/04 03:46:52;;;;;;;0.85;0.43;;;20.40;82.80;;;;;;6274155;22;45287;-71
2022/11/04 03:49:22;;;;;;;1.10;0.38;;;20.40;82.80;;;;;;6272243;22;45275;-71
2022/11/04 03:51:49;;;;;;;0.32;0.20;;;20.40;82.80;;;;;;6272377;22;48318;-72
2022/11/04 03:54:17;;;;;;;0.38;0.35;;;20.40;82.70;;;;;;6273372;22;45352;-71
2022/11/04 03:57:05;;;;;;;0.40;0.30;;;20.40;82.80;;;;;;6275157;22;45431;-71
2022/11/04 03:59:47;;;;;;;0.20;0.10;;;20.40;82.60;;;;;;6273856;22;45335;-71
2022/11/04 04:02:18;;;;;;;0.35;0.20;;;20.40;82.60;;;;;;6275160;22;47173;-70
2022/11/04 04:04:53;;;;;;;0.80;0.40;;;20.40;82.60;;;;;;6274240;22;45263;-71
2022/11/04 04:07:27;;;;;;;0.73;0.30;;;20.40;82.60;;;;;;6275320;22;45313;-71
2022/11/04 04:10:00;;;;;;;0.25;0.13;;;20.40;82.60;;;;;;6275503;22;45231;-72
2022/11/04 04:12:35;;;;;;;0.30;0.22;;;20.40;82.50;;;;;;6274923;22;45468;-71
2022/11/04 04:15:07;;;;;;;0.43;0.22;;;20.40;82.50;;;;;;6274802;22;45307;-71
2022/11/04 04:17:37;;;;;;;1.10;0.30;;;20.40;82.40;;;;;;6275475;22;45275;-71
2022/11/04 04:20:09;;;;;;;0.85;0.40;;;20.40;82.40;;;;;;6275801;22;45369;-71
2022/11/04 04:22:39;;;;;;;0.98;0.50;;;20.40;82.40;;;;;;6274589;22;48290;-71
2022/11/04 04:27:56;;;;;;;0.70;0.30;;;20.40;82.20;;;;;;6275127;22;45239;-71
2022/11/04 04:30:23;;;;;;;0.98;0.30;;;20.40;82.40;;;;;;6274937;22;45366;-71
2022/11/04 04:32:55;;;;;;;0.65;0.40;;;20.40;82.30;;;;;;6273783;22;46443;-71
2022/11/04 04:35:43;;;;;;;1.38;0.43;;;20.40;82.30;;;;;;6273927;22;45379;-71
2022/11/04 04:46:40;;;;;;;0.40;0.20;;;20.40;82.20;;;;;;6273914;22;45490;-71
2022/11/04 04:49:08;;;;;;;0.22;0.20;;;20.40;82.20;;;;;;6275206;22;45341;-71
2022/11/04 04:51:39;;;;;;;0.57;0.28;;;20.40;82.10;;;;;;6274711;22;45407;-71
2022/11/04 04:54:06;;;;;;;0.40;0.30;;;20.40;82.10;;;;;;6275080;22;46519;-71
2022/11/04 04:56:33;;;;;;;0.43;0.28;;;20.40;82.10;;;;;;6274234;22;45340;-71
2022/11/04 04:59:00;;;;;;;1.38;0.30;;;20.40;82.10;;;;;;6274886;22;45196;-71
2022/11/04 05:01:27;;;;;;;0.77;0.50;;;20.40;82.10;;;;;;6275202;22;45391;-71
2022/11/04 05:03:53;;;;;;;1.50;0.30;;;20.40;82.00;;;;;;6274348;22;46647;-70
2022/11/04 05:06:20;;;;;;;0.88;0.40;;;20.40;81.90;;;;;;6273818;22;45288;-71
2022/11/04 05:08:48;;;;;;;0.60;0.22;;;20.40;81.90;;;;;;6274392;22;45244;-70
2022/11/04 05:11:15;;;;;;;1.02;0.40;;;20.40;81.90;;;;;;6275654;22;45271;-71
2022/11/04 05:13:42;;;;;;;1.35;0.40;;;20.40;81.90;;;;;;6274580;22;47176;-71
2022/11/04 05:16:10;;;;;;;0.85;0.30;;;20.30;81.20;;;;;;6273599;22;45340;-70
2022/11/04 05:18:38;;;;;;;0.60;0.40;;;20.30;80.40;;;;;;6274582;22;45281;-71
2022/11/04 05:21:05;;;;;;;0.95;0.45;;;20.30;79.80;;;;;;6272716;22;45283;-70
2022/11/04 05:23:32;;;;;;;0.93;0.50;;;20.30;79.90;;;;;;6273528;22;47505;-70
2022/11/04 05:26:00;;;;;;;0.95;0.40;;;20.30;80.00;;;;;;6272485;22;46283;-71
2022/11/04 05:28:27;;;;;;;0.60;0.40;;;20.30;80.20;;;;;;6273999;22;45236;-70
2022/11/04 05:30:54;;;;;;;0.50;0.30;;;20.30;80.30;;;;;;6273706;22;45456;-70
2022/11/04 05:33:20;;;;;;;2.00;0.50;;;20.30;80.70;;;;;;6272361;22;47504;-71
2022/11/04 05:35:47;;;;;;;3.00;0.57;;;20.30;80.60;;;;;;6274151;22;45301;-71
2022/11/04 05:38:14;;;;;;;0.50;0.30;;;20.30;80.30;;;;;;6274749;22;45251;-70
2022/11/04 05:40:41;;;;;;;1.33;0.65;;;20.30;80.30;;;;;;6274835;22;45328;-70
2022/11/04 05:43:09;;;;;;;1.63;0.30;;;20.30;80.10;;;;;;6274216;22;46233;-71
2022/11/04 05:45:36;;;;;;;1.48;0.65;;;20.30;80.10;;;;;;6272056;22;45444;-70
2022/11/04 05:48:05;;;;;;;0.95;0.38;;;20.30;79.70;;;;;;6272951;22;45329;-70
2022/11/04 05:50:33;;;;;;;1.13;0.40;;;20.30;79.30;;;;;;6274607;22;45374;-70
2022/11/04 05:53:00;;;;;;;1.38;0.50;;;20.30;79.60;;;;;;6274877;22;45210;-70
2022/11/04 05:55:27;;;;;;;1.35;0.43;;;20.30;79.50;;;;;;6273068;22;45337;-70
2022/11/04 05:57:56;;;;;;;0.38;0.30;;;20.30;79.60;;;;;;6275063;22;45351;-70
2022/11/04 06:00:25;;;;;;;0.63;0.30;;;20.30;79.50;;;;;;6274575;22;45406;-70
2022/11/04 06:02:52;;;;;;;1.33;0.47;;;20.30;79.80;;;;;;6274597;22;48223;-71
2022/11/04 06:05:18;;;;;;;0.52;0.38;;;20.30;79.80;;;;;;6274184;22;45336;-70
2022/11/04 06:07:45;;;;;;;1.05;0.30;;;20.30;80.00;;;;;;6274399;22;45399;-70
2022/11/04 06:10:12;;;;;;;1.30;0.50;;;20.30;80.10;;;;;;6274508;22;45511;-70
2022/11/04 06:12:39;;;;;;;0.63;0.47;;;20.30;80.10;;;;;;6274215;22;46229;-71
2022/11/04 06:15:07;;;;;;;0.52;0.30;;;20.30;81.30;;;;;;6272930;22;45241;-70
2022/11/04 06:17:35;;;;;;;1.38;0.50;;;20.30;80.30;;;;;;6274730;22;45409;-70
2022/11/04 06:20:02;;;;;;;1.17;0.40;;;20.30;80.30;;;;;;6274743;22;45215;-71
2022/11/04 06:22:29;;;;;;;3.15;0.40;;;20.30;80.40;;;;;;6274384;22;47304;-70
2022/11/04 06:24:55;;;;;;;1.52;0.45;;;20.30;80.50;;;;;;6272301;22;45207;-70
2022/11/04 06:27:22;;;;;;;1.58;0.57;;;20.30;80.50;;;;;;6275059;22;45280;-70
2022/11/04 06:29:49;;;;;;;1.45;0.40;;;20.30;80.50;;;;;;6272972;22;45306;-70
2022/11/04 06:32:17;;;;;;;0.73;0.40;;;20.30;80.40;;;;;;6271463;22;46595;-70
2022/11/04 06:34:46;;;;;;;0.93;0.30;;;20.30;80.30;;;;;;6273538;22;45409;-70
2022/11/04 06:37:13;;;;;;;0.30;0.20;;;20.30;80.50;;;;;;6272474;22;45316;-71
2022/11/04 06:39:39;;;;;;;1.20;0.40;;;20.30;80.60;;;;;;6273553;22;45513;-71
2022/11/04 06:42:06;;;;;;;1.35;0.60;;;20.30;80.50;;;;;;6273776;22;47288;-70
2022/11/04 06:44:33;;;;;;;1.10;0.45;;;20.30;80.30;;;;;;6274078;22;45312;-70
2022/11/04 06:47:01;;;;;;;0.93;0.50;;;20.30;80.40;;;;;;6274072;22;45157;-71
2022/11/04 06:49:28;;;;;;;2.22;0.52;;;20.30;80.30;;;;;;6273881;22;45387;-70
2022/11/04 06:51:56;;;;;;;0.63;0.40;;;20.30;80.30;;;;;;6274315;22;46552;-70
2022/11/04 06:54:23;;;;;;;1.35;0.47;;;20.30;80.30;;;;;;6273843;22;45211;-71
2022/11/04 06:56:50;;;;;;;1.23;0.40;;;20.30;80.40;;;;;;6273452;22;45216;-71
2022/11/04 06:59:18;;;;;;;0.50;0.40;;;20.30;80.50;;;;;;6274801;22;45368;-70
2022/11/04 07:01:46;;;;;;;0.60;0.38;;;20.30;80.50;;;;;;6273350;22;47216;-70
2022/11/04 07:04:13;;;;;;;0.85;0.30;;;20.30;80.50;;;;;;6274548;22;45784;-70
2022/11/04 07:06:42;;;;;;;0.47;0.45;;;20.30;80.30;;;;;;6273860;22;45259;-71
2022/11/04 07:09:12;;;;;;;1.05;0.50;;;20.30;80.30;;;;;;6273405;22;45275;-70
2022/11/04 07:11:39;;;;;;;0.25;0.20;;;20.30;80.30;;;;;;6273780;22;45312;-70
2022/11/04 07:14:07;;;;;;;0.73;0.40;;;20.30;80.20;;;;;;6271868;22;45309;-71
2022/11/04 07:16:34;;;;;;;1.08;0.40;;;20.30;80.20;;;;;;6273522;22;45312;-70
2022/11/04 07:19:01;;;;;;;0.70;0.40;;;20.30;80.50;;;;;;6274669;22;45575;-70
2022/11/04 07:21:27;;;;;;;1.67;0.43;;;20.30;80.50;;;;;;6273463;22;47189;-71
2022/11/04 07:23:54;;;;;;;1.13;0.50;;;20.30;80.30;;;;;;6272680;22;45193;-71
2022/11/04 07:26:22;;;;;;;0.77;0.32;;;20.30;80.50;;;;;;6273380;22;45289;-70
2022/11/04 07:28:49;;;;;;;0.65;0.30;;;20.30;80.40;;;;;;6272631;22;45511;-71
2022/11/04 07:31:16;;;;;;;0.65;0.30;;;20.30;80.40;;;;;;6273822;22;48040;-70
2022/11/04 07:33:48;;;;;;;0.90;0.30;;;20.30;80.50;;;;;;6272285;22;45212;-70
2022/11/04 07:36:15;;;;;;;0.60;0.30;;;20.30;80.50;;;;;;6273284;22;45287;-70
2022/11/04 07:38:42;;;;;;;0.30;0.30;;;20.30;80.30;;;;;;6273686;22;45257;-71
2022/11/04 07:41:09;;;;;;;1.10;0.50;;;20.30;80.40;;;;;;6273199;22;45406;-70
2022/11/04 07:43:37;;;;;;;0.85;0.40;;;20.30;80.30;;;;;;6273961;22;45197;-71
2022/11/04 07:46:06;;;;;;;1.85;0.63;;;20.30;80.50;;;;;;6272850;22;45276;-71
2022/11/04 07:48:33;;;;;;;0.95;0.32;;;20.30;80.40;;;;;;6274218;22;45371;-71
2022/11/04 07:51:01;;;;;;;1.10;0.40;;;20.30;80.40;;;;;;6247142;22;47082;-70
2022/11/04 07:53:30;;;;;;;0.30;0.20;;;20.30;80.20;;;;;;6273488;22;45304;-71
2022/11/04 07:55:56;;;;;;;0.60;0.32;;;20.30;80.20;;;;;;6273743;22;45288;-70
2022/11/04 07:58:24;;;;;;;0.65;0.47;;;20.30;80.10;;;;;;6273895;22;45555;-70
2022/11/04 08:00:58;;;;;;;0.55;0.30;;;20.30;80.10;;;;;;6273869;22;46717;-71
2022/11/04 08:03:24;;;;;;;2.15;0.30;;;20.30;80.10;;;;;;6273664;22;45316;-71
2022/11/04 08:05:55;;;;;;;1.95;0.50;;;20.30;80.20;;;;;;6272792;22;45366;-71
2022/11/04 08:08:22;;;;;;;0.55;0.30;;;20.30;80.10;;;;;;6274374;22;45342;-70
2022/11/04 08:10:52;;;;;;;1.48;0.60;;;20.30;80.30;;;;;;6272873;22;47337;-71
2022/11/04 08:13:20;;;;;;;0.40;0.40;;;20.30;80.30;;;;;;6274044;22;45204;-71
2022/11/04 08:15:46;;;;;;;0.70;0.32;;;20.30;80.30;;;;;;6273153;22;45387;-70
2022/11/04 08:18:15;;;;;;;0.60;0.40;;;20.30;80.30;;;;;;6274170;22;45226;-70
2022/11/04 08:20:47;;;;;;;0.38;0.25;;;20.30;80.30;;;;;;6273627;22;47098;-71
2022/11/04 08:23:14;;;;;;;1.73;0.45;;;20.30;80.40;;;;;;6273376;22;45286;-70
2022/11/04 08:25:41;;;;;;;0.30;0.30;;;20.30;80.30;;;;;;6273198;22;45219;-71
2022/11/04 08:28:11;;;;;;;0.50;0.30;;;20.30;80.30;;;;;;6273925;22;45265;-71
2022/11/04 08:30:38;;;;;;;0.95;0.43;;;20.40;80.50;;;;;;6273811;22;48268;-70
2022/11/04 08:33:05;;;;;;;0.70;0.30;;;20.40;80.50;;;;;;6272243;22;45302;-70
2022/11/04 08:35:34;;;;;;;0.47;0.35;;;20.30;80.30;;;;;;6272463;22;45326;-70
2022/11/04 08:38:02;;;;;;;1.25;0.40;;;20.30;80.30;;;;;;6272625;22;45279;-71
2022/11/04 08:40:29;;;;;;;3.03;0.45;;;20.30;79.80;;;;;;6274104;22;46387;-70
2022/11/04 08:42:55;;;;;;;0.80;0.40;;;20.30;80.00;;;;;;6275056;22;45708;-71
2022/11/04 08:45:25;;;;;;;1.15;0.55;;;20.30;79.90;;;;;;6271475;22;45219;-71
2022/11/04 08:47:52;;;;;;;0.77;0.32;;;20.30;79.80;;;;;;6274668;22;45391;-71
2022/11/04 08:50:19;;;;;;;0.82;0.30;;;20.30;79.60;;;;;;6276161;22;46613;-70
2022/11/04 08:52:47;;;;;;;1.05;0.45;;;20.30;79.30;;;;;;6276644;22;45175;-71
2022/11/04 08:55:13;;;;;;;0.88;0.43;;;20.30;79.80;;;;;;6274121;22;45197;-71
2022/11/04 08:57:40;;;;;;;1.10;0.50;;;20.30;79.90;;;;;;6274952;22;45241;-70
2022/11/04 09:00:08;;;;;;;1.30;0.52;;;20.30;79.80;;;;;;6274485;22;47658;-71
2022/11/04 09:02:34;;;;;;;1.45;0.50;;;20.30;80.10;;;;;;6274547;22;45275;-71
2022/11/04 09:05:02;;;;;;;0.45;0.30;;;20.30;80.10;;;;;;6272038;22;45321;-70
2022/11/04 09:07:29;;;;;;;0.75;0.47;;;20.30;80.10;;;;;;6274840;22;45417;-70
2022/11/04 09:09:57;;;;;;;0.43;0.38;;;20.30;80.00;;;;;;6274783;22;45456;-70
2022/11/04 09:12:24;;;;;;;1.02;0.40;;;20.30;80.10;;;;;;6274638;22;45204;-70
2022/11/04 09:14:50;;;;;;;1.52;0.43;;;20.30;80.20;;;;;;6274856;22;45303;-70
2022/11/04 09:17:17;;;;;;;0.98;0.70;;;20.30;80.20;;;;;;6274179;22;45283;-70
2022/11/04 09:19:44;;;;;;;1.85;0.40;;;20.30;81.20;;;;;;6274688;22;47471;-71
2022/11/04 09:22:11;;;;;;;0.68;0.30;;;20.30;80.20;;;;;;6273843;22;46108;-71
2022/11/04 09:24:37;;;;;;;0.65;0.40;;;20.30;80.30;;;;;;6273930;22;45466;-70
2022/11/04 09:27:06;;;;;;;0.43;0.35;;;20.30;80.30;;;;;;6274551;22;45454;-70
2022/11/04 09:29:35;;;;;;;0.65;0.43;;;20.30;80.40;;;;;;6273495;22;46584;-71
2022/11/04 09:32:01;;;;;;;0.70;0.43;;;20.30;80.30;;;;;;6274219;22;45423;-71
2022/11/04 09:34:28;;;;;;;1.88;0.60;;;20.30;80.30;;;;;;6274376;22;45280;-71
2022/11/04 09:36:55;;;;;;;0.85;0.50;;;20.30;80.40;;;;;;6270653;22;45270;-70
2022/11/04 09:39:22;;;;;;;0.68;0.50;;;20.30;80.10;;;;;;6274158;22;47455;-71
2022/11/04 09:42:02;;;;;;;1.90;0.60;;;20.30;80.20;;;;;;6273254;22;45204;-71
2022/11/04 09:44:43;;;;;;;0.75;0.40;;;20.30;80.10;;;;;;6272549;22;45238;-70
2022/11/04 09:47:13;;;;;;;1.05;0.43;;;20.30;80.10;;;;;;6273798;22;45450;-71
2022/11/04 09:49:44;;;;;;;1.15;0.52;;;20.30;80.00;;;;;;6274577;22;46734;-70
2022/11/04 09:52:17;;;;;;;0.75;0.40;;;20.30;80.00;;;;;;6274017;22;45279;-71
2022/11/04 09:54:54;;;;;;;0.40;0.40;;;20.30;80.00;;;;;;6272971;22;45393;-70
2022/11/04 09:57:21;;;;;;;1.40;0.40;;;20.40;80.10;;;;;;6272589;22;45513;-70
2022/11/04 09:59:49;;;;;;;0.50;0.30;;;20.40;80.00;;;;;;6274001;22;47540;-70
2022/11/04 10:02:31;;;;;;;2.00;0.50;;;20.40;79.80;;;;;;6274550;22;45393;-70
2022/11/04 10:05:08;;;;;;;0.70;0.50;;;20.50;80.00;;;;;;6274373;22;45429;-71
2022/11/04 10:07:53;;;;;;;0.98;0.50;;;20.50;79.80;;;;;;6274763;22;45307;-70
2022/11/04 10:10:28;;;;;;;0.40;0.40;;;20.50;79.60;;;;;;6274081;22;46251;-70
2022/11/04 10:13:12;;;;;;;1.33;0.70;;;20.50;79.70;;;;;;6274104;22;45414;-70
2022/11/04 10:16:02;;;;;;;2.38;0.50;;;20.50;79.70;;;;;;6272142;22;45297;-70
2022/11/04 10:19:01;;;;;;;1.70;0.60;;;20.50;79.80;;;;;;6274377;22;45283;-71
2022/11/04 10:21:42;;;;;;;0.63;0.32;;;20.50;80.00;;;;;;6274210;22;45426;-71
2022/11/04 10:24:18;;;;;;;0.70;0.40;;;20.50;79.90;;;;;;6273977;22;45238;-71
2022/11/04 10:26:48;;;;;;;1.08;0.30;;;20.40;79.60;;;;;;6274123;22;45285;-70
2022/11/04 10:29:19;;;;;;;1.08;0.40;;;20.50;79.70;;;;;;6274221;22;45469;-71
2022/11/04 10:31:48;;;;;;;1.23;0.45;;;20.40;79.60;;;;;;6274135;22;47512;-70
2022/11/04 10:34:28;;;;;;;1.38;0.55;;;20.40;79.60;;;;;;6274783;22;45719;-71
2022/11/04 10:36:56;;;;;;;1.23;0.52;;;20.40;79.80;;;;;;6273456;22;45223;-70
2022/11/04 10:39:28;;;;;;;1.35;0.45;;;20.40;79.70;;;;;;6274878;22;45281;-70
2022/11/04 10:41:57;;;;;;;1.25;0.60;;;20.50;79.90;;;;;;6274380;22;47399;-70
2022/11/04 10:44:26;;;;;;;1.70;0.60;;;20.40;79.80;;;;;;6273995;22;45277;-71
2022/11/04 10:47:04;;;;;;;1.88;0.40;;;20.40;79.90;;;;;;6273774;22;45203;-70
2022/11/04 10:50:01;;;;;;;1.00;0.40;;;20.40;79.90;;;;;;6274273;22;45383;-71
2022/11/04 10:52:28;;;;;;;0.60;0.43;;;20.50;80.00;;;;;;6273983;22;46541;-70
2022/11/04 10:54:55;;;;;;;0.85;0.40;;;20.50;80.00;;;;;;6273635;22;45203;-71
2022/11/04 10:57:24;;;;;;;0.57;0.40;;;20.50;80.10;;;;;;6273597;22;45355;-70
2022/11/04 10:59:54;;;;;;;0.65;0.45;;;20.50;80.30;;;;;;6274809;22;45435;-71
2022/11/04 11:02:45;;;;;;;0.88;0.47;;;20.50;80.30;;;;;;6273524;22;47337;-69
2022/11/04 11:05:23;;;;;;;1.63;0.75;;;20.50;80.40;;;;;;6274447;22;45370;-70
2022/11/04 11:07:52;;;;;;;0.75;0.38;;;20.50;80.40;;;;;;6273809;22;45425;-70
2022/11/04 11:10:22;;;;;;;1.02;0.73;;;20.50;80.40;;;;;;6274407;22;45350;-70
2022/11/04 11:12:57;;;;;;;1.10;0.52;;;20.50;80.50;;;;;;6273449;22;48101;-70
2022/11/04 11:15:34;;;;;;;0.70;0.50;;;20.50;80.50;;;;;;6271724;22;45374;-71
2022/11/04 11:18:15;;;;;;;1.45;0.50;;;20.50;80.50;;;;;;6274536;22;45350;-70
2022/11/04 11:20:43;;;;;;;1.25;0.32;;;20.50;80.40;;;;;;6274200;22;45472;-70
2022/11/04 11:23:35;;;;;;;1.30;0.50;;;20.50;80.50;;;;;;6274152;22;46609;-70
2022/11/04 11:26:03;;;;;;;1.15;0.55;;;20.40;80.40;;;;;;6272854;22;45263;-71
2022/11/04 11:28:36;;;;;;;0.47;0.40;;;20.40;80.50;;;;;;6274630;22;45410;-71
2022/11/04 11:31:11;;;;;;;0.90;0.50;;;20.50;80.40;;;;;;6274206;22;45455;-71
2022/11/04 11:33:47;;;;;;;0.52;0.40;;;20.50;80.40;;;;;;6273020;22;45312;-71
2022/11/04 11:36:19;;;;;;;1.27;0.57;;;20.40;80.50;;;;;;6273089;22;45469;-71
2022/11/04 11:38:56;;;;;;;0.82;0.60;;;20.40;80.50;;;;;;6272980;22;45429;-71
2022/11/04 11:41:30;;;;;;;2.00;0.68;;;20.40;80.50;;;;;;6274365;22;45303;-71
2022/11/04 11:44:01;;;;;;;3.50;0.57;;;20.40;80.50;;;;;;6273141;22;47291;-70
2022/11/04 11:46:30;;;;;;;1.60;0.50;;;20.40;80.80;;;;;;6273100;22;45296;-71
2022/11/04 11:49:01;;;;;;;1.52;0.45;;;20.40;80.80;;;;;;6274078;22;45483;-71
2022/11/04 11:51:30;;;;;;;1.15;0.43;;;20.40;81.70;;;;;;6271886;22;45271;-70
2022/11/04 11:54:17;;;;;;;1.00;0.40;;;20.50;80.90;;;;;;6273962;22;47473;-70
2022/11/04 11:56:48;;;;;;;0.50;0.32;;;20.50;80.80;;;;;;6250953;22;45463;-71
2022/11/04 11:59:34;;;;;;;1.02;0.50;;;20.40;80.90;;;;;;6274263;22;45218;-70
2022/11/04 12:02:23;;;;;;;2.88;0.60;;;20.40;80.80;;;;;;6273952;22;45296;-71
2022/11/04 12:04:53;;;;;;;1.90;0.50;;;20.40;80.90;;;;;;6273564;22;47853;-72
2022/11/04 12:07:28;;;;;;;2.63;0.50;;;20.40;80.70;;;;;;6272695;22;45307;-71
2022/11/04 12:10:05;;;;;;;1.88;0.45;;;20.40;80.90;;;;;;6272792;22;45640;-72
2022/11/04 12:12:45;;;;;;;0.70;0.38;;;20.40;80.70;;;;;;6273977;22;45256;-71
2022/11/04 12:15:32;;;;;;;1.25;0.43;;;20.40;80.80;;;;;;6273811;22;46501;-71
2022/11/04 12:18:10;;;;;;;1.20;0.45;;;20.40;80.90;;;;;;6275199;22;45236;-70
2022/11/04 12:20:55;;;;;;;0.98;0.50;;;20.40;80.80;;;;;;6275072;22;45371;-70
2022/11/04 12:23:28;;;;;;;1.88;0.63;;;20.40;80.70;;;;;;6274727;22;45232;-71
2022/11/04 12:26:11;;;;;;;0.80;0.50;;;20.40;80.90;;;;;;6274236;22;48068;-71
2022/11/04 12:28:52;;;;;;;0.82;0.40;;;20.40;80.90;;;;;;6274221;22;45422;-71
2022/11/04 12:31:32;;;;;;;0.85;0.43;;;20.40;80.90;;;;;;6275410;22;45293;-70
2022/11/04 12:34:08;;;;;;;1.30;0.50;;;20.40;80.70;;;;;;6274923;22;45312;-70
2022/11/04 12:36:52;;;;;;;1.10;0.70;;;20.40;80.80;;;;;;6274361;22;48463;-70
2022/11/04 12:39:31;;;;;;;0.82;0.40;;;20.40;80.90;;;;;;6273985;22;45243;-71
2022/11/04 12:42:12;;;;;;;2.10;0.50;;;20.50;80.80;;;;;;6274529;22;45255;-70
2022/11/04 12:44:44;;;;;;;1.00;0.40;;;20.50;81.00;;;;;;6275145;22;45389;-71
2022/11/04 12:47:22;;;;;;;1.40;0.60;;;20.40;80.90;;;;;;6274842;22;47194;-71
2022/11/04 12:50:17;;;;;;;1.35;0.35;;;20.40;80.90;;;;;;6275262;22;45230;-71
2022/11/04 12:53:17;;;;;;;0.73;0.52;;;20.50;81.00;;;;;;6273414;22;45204;-70
2022/11/04 12:55:54;;;;;;;0.50;0.43;;;20.40;81.00;;;;;;6272592;22;45253;-71
2022/11/04 12:58:41;;;;;;;0.55;0.30;;;20.50;80.80;;;;;;6274394;22;47633;-71
2022/11/04 13:01:13;;;;;;;0.85;0.40;;;20.40;81.00;;;;;;6275208;22;45375;-70
2022/11/04 13:03:48;;;;;;;1.38;0.40;;;20.40;80.80;;;;;;6273788;22;45339;-71
2022/11/04 13:06:18;;;;;;;1.05;0.40;;;20.40;80.90;;;;;;6274516;22;45408;-70
2022/11/04 13:08:50;;;;;;;0.63;0.40;;;20.40;81.00;;;;;;6275095;22;47511;-71
2022/11/04 13:11:23;;;;;;;0.95;0.60;;;20.40;80.90;;;;;;6274493;22;45375;-71
2022/11/04 13:13:57;;;;;;;1.73;0.60;;;20.40;80.90;;;;;;6275731;22;45343;-71
2022/11/04 13:16:24;;;;;;;1.10;0.52;;;20.40;80.90;;;;;;6274284;22;45351;-71
2022/11/04 13:18:51;;;;;;;0.85;0.35;;;20.40;80.90;;;;;;6275007;22;46563;-71
2022/11/04 13:21:21;;;;;;;0.38;0.38;;;20.40;80.90;;;;;;6274579;22;45260;-71
2022/11/04 13:23:54;;;;;;;0.63;0.38;;;20.40;80.80;;;;;;6274266;22;45232;-71
2022/11/04 13:26:22;;;;;;;0.88;0.40;;;20.40;80.80;;;;;;6274758;22;45140;-70
2022/11/04 13:28:58;;;;;;;1.55;0.52;;;20.40;80.90;;;;;;6274315;22;46462;-70
2022/11/04 13:31:32;;;;;;;1.25;0.40;;;20.40;80.80;;;;;;6275347;22;45397;-70
2022/11/04 13:34:05;;;;;;;0.38;0.30;;;20.40;80.80;;;;;;6274624;22;45348;-71
2022/11/04 13:36:40;;;;;;;1.55;0.40;;;20.40;80.80;;;;;;6274415;22;45294;-71
2022/11/04 13:39:16;;;;;;;1.27;0.30;;;20.40;80.80;;;;;;6274156;22;46332;-71